sensor_id;sensor_type;location;lat;lon;timestamp;P1;durP1;ratioP1;P2;durP2;ratioP2
9076;SDS011;4574;51.072;17.174;2022-08-19T00:01:54;6.87;;;6.27;;
9076;SDS011;4574;51.072;17.174;2022-08-19T00:04:26;6.60;;;5.67;;
9076;SDS011;4574;51.072;17.174;2022-08-19T00:06:57;21.37;;;7.60;;
9076;SDS011;4574;51.072;17.174;2022-08-19T00:09:26;7.77;;;6.50;;
9076;SDS011;4574;51.072;17.174;2022-08-19T00:11:55;6.90;;;5.90;;
9076;SDS011;4574;51.072;17.174;2022-08-19T00:14:25;7.37;;;5.70;;
9076;SDS011;4574;51.072;17.174;2022-08-19T00:17:00;6.70;;;5.97;;
9076;SDS011;4574;51.072;17.174;2022-08-19T00:19:29;9.27;;;6.50;;
9076;SDS011;4574;51.072;17.174;2022-08-19T00:21:58;7.33;;;6.57;;
9076;SDS011;4574;51.072;17.174;2022-08-19T00:24:27;8.93;;;6.20;;
9076;SDS011;4574;51.072;17.174;2022-08-19T00:26:56;6.63;;;5.90;;
9076;SDS011;4574;51.072;17.174;2022-08-19T00:29:45;9.83;;;6.47;;
9076;SDS011;4574;51.072;17.174;2022-08-19T00:32:19;8.73;;;6.20;;
9076;SDS011;4574;51.072;17.174;2022-08-19T00:34:49;7.50;;;6.30;;
9076;SDS011;4574;51.072;17.174;2022-08-19T00:37:20;6.70;;;6.00;;
9076;SDS011;4574;51.072;17.174;2022-08-19T00:39:49;6.47;;;5.80;;
9076;SDS011;4574;51.072;17.174;2022-08-19T00:42:18;6.43;;;5.70;;
9076;SDS011;4574;51.072;17.174;2022-08-19T00:44:48;7.40;;;6.50;;
9076;SDS011;4574;51.072;17.174;2022-08-19T00:47:19;8.67;;;6.30;;
9076;SDS011;4574;51.072;17.174;2022-08-19T00:49:48;8.07;;;6.10;;
9076;SDS011;4574;51.072;17.174;2022-08-19T00:52:20;7.27;;;6.10;;
9076;SDS011;4574;51.072;17.174;2022-08-19T00:54:51;5.90;;;5.33;;
9076;SDS011;4574;51.072;17.174;2022-08-19T00:57:23;7.27;;;5.83;;
9076;SDS011;4574;51.072;17.174;2022-08-19T00:59:56;8.30;;;6.37;;
9076;SDS011;4574;51.072;17.174;2022-08-19T01:02:30;5.73;;;5.23;;
9076;SDS011;4574;51.072;17.174;2022-08-19T01:05:00;7.77;;;5.80;;
9076;SDS011;4574;51.072;17.174;2022-08-19T01:07:32;6.50;;;5.90;;
9076;SDS011;4574;51.072;17.174;2022-08-19T01:10:04;6.83;;;6.10;;
9076;SDS011;4574;51.072;17.174;2022-08-19T01:12:35;6.77;;;6.03;;
9076;SDS011;4574;51.072;17.174;2022-08-19T01:15:04;7.23;;;6.27;;
9076;SDS011;4574;51.072;17.174;2022-08-19T01:17:37;6.40;;;5.73;;
9076;SDS011;4574;51.072;17.174;2022-08-19T01:20:09;7.20;;;6.30;;
9076;SDS011;4574;51.072;17.174;2022-08-19T01:22:42;6.40;;;5.67;;
9076;SDS011;4574;51.072;17.174;2022-08-19T01:25:13;6.27;;;5.67;;
9076;SDS011;4574;51.072;17.174;2022-08-19T01:27:43;6.77;;;5.57;;
9076;SDS011;4574;51.072;17.174;2022-08-19T01:30:15;7.93;;;5.87;;
9076;SDS011;4574;51.072;17.174;2022-08-19T01:32:46;8.87;;;6.23;;
9076;SDS011;4574;51.072;17.174;2022-08-19T01:35:15;6.30;;;5.70;;
9076;SDS011;4574;51.072;17.174;2022-08-19T01:37:47;6.67;;;5.97;;
9076;SDS011;4574;51.072;17.174;2022-08-19T01:40:18;6.57;;;5.87;;
9076;SDS011;4574;51.072;17.174;2022-08-19T01:42:48;7.10;;;6.40;;
9076;SDS011;4574;51.072;17.174;2022-08-19T01:45:17;6.63;;;6.00;;
9076;SDS011;4574;51.072;17.174;2022-08-19T01:47:46;13.13;;;6.37;;
9076;SDS011;4574;51.072;17.174;2022-08-19T01:50:20;6.27;;;5.67;;
9076;SDS011;4574;51.072;17.174;2022-08-19T01:52:50;8.20;;;6.20;;
9076;SDS011;4574;51.072;17.174;2022-08-19T01:55:31;7.27;;;6.50;;
9076;SDS011;4574;51.072;17.174;2022-08-19T01:58:01;6.33;;;5.73;;
9076;SDS011;4574;51.072;17.174;2022-08-19T02:00:33;8.23;;;6.43;;
9076;SDS011;4574;51.072;17.174;2022-08-19T02:03:01;7.10;;;6.30;;
9076;SDS011;4574;51.072;17.174;2022-08-19T02:05:30;6.57;;;5.87;;
9076;SDS011;4574;51.072;17.174;2022-08-19T02:08:00;9.23;;;6.70;;
9076;SDS011;4574;51.072;17.174;2022-08-19T02:10:28;7.70;;;5.97;;
9076;SDS011;4574;51.072;17.174;2022-08-19T02:12:56;7.40;;;6.43;;
9076;SDS011;4574;51.072;17.174;2022-08-19T02:15:25;10.77;;;6.93;;
9076;SDS011;4574;51.072;17.174;2022-08-19T02:17:53;6.83;;;6.17;;
9076;SDS011;4574;51.072;17.174;2022-08-19T02:20:22;8.80;;;7.00;;
9076;SDS011;4574;51.072;17.174;2022-08-19T02:22:50;7.37;;;6.33;;
9076;SDS011;4574;51.072;17.174;2022-08-19T02:25:20;8.60;;;6.70;;
9076;SDS011;4574;51.072;17.174;2022-08-19T02:27:49;6.83;;;5.93;;
9076;SDS011;4574;51.072;17.174;2022-08-19T02:30:18;7.17;;;6.47;;
9076;SDS011;4574;51.072;17.174;2022-08-19T02:32:46;6.70;;;6.00;;
9076;SDS011;4574;51.072;17.174;2022-08-19T02:35:15;8.23;;;6.30;;
9076;SDS011;4574;51.072;17.174;2022-08-19T02:37:44;7.30;;;6.47;;
9076;SDS011;4574;51.072;17.174;2022-08-19T02:40:31;7.50;;;6.47;;
9076;SDS011;4574;51.072;17.174;2022-08-19T02:43:00;9.83;;;7.10;;
9076;SDS011;4574;51.072;17.174;2022-08-19T02:45:31;7.23;;;6.10;;
9076;SDS011;4574;51.072;17.174;2022-08-19T02:48:00;7.47;;;6.60;;
9076;SDS011;4574;51.072;17.174;2022-08-19T02:50:30;10.00;;;6.73;;
9076;SDS011;4574;51.072;17.174;2022-08-19T02:52:59;15.53;;;7.13;;
9076;SDS011;4574;51.072;17.174;2022-08-19T02:55:27;10.40;;;7.47;;
9076;SDS011;4574;51.072;17.174;2022-08-19T02:57:57;7.97;;;7.17;;
9076;SDS011;4574;51.072;17.174;2022-08-19T03:00:26;7.93;;;7.00;;
9076;SDS011;4574;51.072;17.174;2022-08-19T03:02:55;9.03;;;6.90;;
9076;SDS011;4574;51.072;17.174;2022-08-19T03:05:23;10.67;;;6.20;;
9076;SDS011;4574;51.072;17.174;2022-08-19T03:08:12;8.07;;;6.53;;
9076;SDS011;4574;51.072;17.174;2022-08-19T03:10:42;6.93;;;6.23;;
9076;SDS011;4574;51.072;17.174;2022-08-19T03:13:14;9.90;;;6.27;;
9076;SDS011;4574;51.072;17.174;2022-08-19T03:15:45;6.97;;;6.37;;
9076;SDS011;4574;51.072;17.174;2022-08-19T03:18:14;7.13;;;6.50;;
9076;SDS011;4574;51.072;17.174;2022-08-19T03:20:44;7.80;;;7.00;;
9076;SDS011;4574;51.072;17.174;2022-08-19T03:23:14;8.83;;;7.13;;
9076;SDS011;4574;51.072;17.174;2022-08-19T03:25:44;11.10;;;6.93;;
9076;SDS011;4574;51.072;17.174;2022-08-19T03:28:25;7.87;;;6.73;;
9076;SDS011;4574;51.072;17.174;2022-08-19T03:30:56;8.10;;;6.90;;
9076;SDS011;4574;51.072;17.174;2022-08-19T03:33:27;8.47;;;6.17;;
9076;SDS011;4574;51.072;17.174;2022-08-19T03:36:04;11.30;;;6.87;;
9076;SDS011;4574;51.072;17.174;2022-08-19T03:38:35;7.40;;;6.67;;
9076;SDS011;4574;51.072;17.174;2022-08-19T03:41:06;8.07;;;6.43;;
9076;SDS011;4574;51.072;17.174;2022-08-19T03:43:38;8.67;;;7.27;;
9076;SDS011;4574;51.072;17.174;2022-08-19T03:46:09;13.23;;;6.87;;
9076;SDS011;4574;51.072;17.174;2022-08-19T03:48:39;7.97;;;6.33;;
9076;SDS011;4574;51.072;17.174;2022-08-19T03:51:14;8.67;;;6.97;;
9076;SDS011;4574;51.072;17.174;2022-08-19T03:53:45;10.20;;;7.53;;
9076;SDS011;4574;51.072;17.174;2022-08-19T03:56:14;9.07;;;7.27;;
9076;SDS011;4574;51.072;17.174;2022-08-19T03:58:45;8.93;;;6.93;;
9076;SDS011;4574;51.072;17.174;2022-08-19T04:01:14;7.70;;;7.00;;
9076;SDS011;4574;51.072;17.174;2022-08-19T04:03:45;8.93;;;8.03;;
9076;SDS011;4574;51.072;17.174;2022-08-19T04:06:15;10.03;;;7.00;;
9076;SDS011;4574;51.072;17.174;2022-08-19T04:08:48;11.63;;;8.17;;
9076;SDS011;4574;51.072;17.174;2022-08-19T04:11:20;10.47;;;7.80;;
9076;SDS011;4574;51.072;17.174;2022-08-19T04:14:10;10.07;;;7.83;;
9076;SDS011;4574;51.072;17.174;2022-08-19T04:16:40;10.90;;;8.37;;
9076;SDS011;4574;51.072;17.174;2022-08-19T04:19:11;9.13;;;7.50;;
9076;SDS011;4574;51.072;17.174;2022-08-19T04:21:42;11.10;;;7.97;;
9076;SDS011;4574;51.072;17.174;2022-08-19T04:24:12;9.03;;;8.07;;
9076;SDS011;4574;51.072;17.174;2022-08-19T04:26:41;10.17;;;8.80;;
9076;SDS011;4574;51.072;17.174;2022-08-19T04:29:13;9.60;;;8.33;;
9076;SDS011;4574;51.072;17.174;2022-08-19T04:31:48;10.80;;;8.67;;
9076;SDS011;4574;51.072;17.174;2022-08-19T04:34:18;14.03;;;8.70;;
9076;SDS011;4574;51.072;17.174;2022-08-19T04:36:49;13.67;;;9.10;;
9076;SDS011;4574;51.072;17.174;2022-08-19T04:39:19;10.77;;;9.03;;
9076;SDS011;4574;51.072;17.174;2022-08-19T04:42:10;10.13;;;9.03;;
9076;SDS011;4574;51.072;17.174;2022-08-19T04:44:57;11.10;;;8.70;;
9076;SDS011;4574;51.072;17.174;2022-08-19T04:47:26;10.60;;;9.50;;
9076;SDS011;4574;51.072;17.174;2022-08-19T04:50:13;10.87;;;8.80;;
9076;SDS011;4574;51.072;17.174;2022-08-19T04:52:42;9.77;;;8.80;;
9076;SDS011;4574;51.072;17.174;2022-08-19T04:55:11;10.70;;;8.80;;
9076;SDS011;4574;51.072;17.174;2022-08-19T04:57:41;13.47;;;9.90;;
9076;SDS011;4574;51.072;17.174;2022-08-19T05:00:11;11.20;;;9.07;;
9076;SDS011;4574;51.072;17.174;2022-08-19T05:02:40;12.97;;;9.30;;
9076;SDS011;4574;51.072;17.174;2022-08-19T05:05:08;13.80;;;8.97;;
9076;SDS011;4574;51.072;17.174;2022-08-19T05:07:37;10.77;;;9.43;;
9076;SDS011;4574;51.072;17.174;2022-08-19T05:10:07;11.90;;;9.60;;
9076;SDS011;4574;51.072;17.174;2022-08-19T05:12:36;11.67;;;9.17;;
9076;SDS011;4574;51.072;17.174;2022-08-19T05:15:06;12.93;;;9.00;;
9076;SDS011;4574;51.072;17.174;2022-08-19T05:17:37;9.93;;;8.57;;
9076;SDS011;4574;51.072;17.174;2022-08-19T05:20:25;12.57;;;9.80;;
9076;SDS011;4574;51.072;17.174;2022-08-19T05:23:11;12.20;;;9.87;;
9076;SDS011;4574;51.072;17.174;2022-08-19T05:25:47;11.13;;;8.93;;
9076;SDS011;4574;51.072;17.174;2022-08-19T05:28:16;13.17;;;9.90;;
9076;SDS011;4574;51.072;17.174;2022-08-19T05:30:45;10.53;;;9.40;;
9076;SDS011;4574;51.072;17.174;2022-08-19T05:33:16;12.33;;;9.70;;
9076;SDS011;4574;51.072;17.174;2022-08-19T05:35:44;10.17;;;9.17;;
9076;SDS011;4574;51.072;17.174;2022-08-19T05:38:14;13.73;;;9.70;;
9076;SDS011;4574;51.072;17.174;2022-08-19T05:40:43;11.80;;;10.00;;
9076;SDS011;4574;51.072;17.174;2022-08-19T05:43:15;10.67;;;9.47;;
9076;SDS011;4574;51.072;17.174;2022-08-19T05:45:44;10.47;;;9.00;;
9076;SDS011;4574;51.072;17.174;2022-08-19T05:48:13;10.80;;;9.23;;
9076;SDS011;4574;51.072;17.174;2022-08-19T05:50:45;11.03;;;9.93;;
9076;SDS011;4574;51.072;17.174;2022-08-19T05:53:16;11.37;;;9.90;;
9076;SDS011;4574;51.072;17.174;2022-08-19T05:55:45;15.63;;;9.73;;
9076;SDS011;4574;51.072;17.174;2022-08-19T05:58:13;11.37;;;9.70;;
9076;SDS011;4574;51.072;17.174;2022-08-19T06:00:42;10.73;;;9.60;;
9076;SDS011;4574;51.072;17.174;2022-08-19T06:03:11;13.03;;;9.27;;
9076;SDS011;4574;51.072;17.174;2022-08-19T06:05:40;10.73;;;9.30;;
9076;SDS011;4574;51.072;17.174;2022-08-19T06:08:18;13.27;;;10.67;;
9076;SDS011;4574;51.072;17.174;2022-08-19T06:11:11;13.03;;;9.07;;
9076;SDS011;4574;51.072;17.174;2022-08-19T06:13:41;10.70;;;9.33;;
9076;SDS011;4574;51.072;17.174;2022-08-19T06:16:10;12.90;;;10.13;;
9076;SDS011;4574;51.072;17.174;2022-08-19T06:18:38;14.40;;;12.30;;
9076;SDS011;4574;51.072;17.174;2022-08-19T06:21:07;11.17;;;10.00;;
9076;SDS011;4574;51.072;17.174;2022-08-19T06:23:37;11.07;;;9.43;;
9076;SDS011;4574;51.072;17.174;2022-08-19T06:26:05;12.00;;;9.50;;
9076;SDS011;4574;51.072;17.174;2022-08-19T06:28:34;16.40;;;10.20;;
9076;SDS011;4574;51.072;17.174;2022-08-19T06:31:05;11.10;;;9.37;;
9076;SDS011;4574;51.072;17.174;2022-08-19T06:33:35;13.20;;;9.93;;
9076;SDS011;4574;51.072;17.174;2022-08-19T06:36:03;11.13;;;9.20;;
9076;SDS011;4574;51.072;17.174;2022-08-19T06:38:32;11.57;;;8.97;;
9076;SDS011;4574;51.072;17.174;2022-08-19T06:41:03;14.53;;;9.83;;
9076;SDS011;4574;51.072;17.174;2022-08-19T06:43:33;12.30;;;9.23;;
9076;SDS011;4574;51.072;17.174;2022-08-19T06:46:03;13.60;;;10.07;;
9076;SDS011;4574;51.072;17.174;2022-08-19T06:48:37;12.20;;;9.30;;
9076;SDS011;4574;51.072;17.174;2022-08-19T06:51:10;11.93;;;8.57;;
9076;SDS011;4574;51.072;17.174;2022-08-19T06:53:45;10.57;;;9.07;;
9076;SDS011;4574;51.072;17.174;2022-08-19T06:56:16;10.13;;;8.10;;
9076;SDS011;4574;51.072;17.174;2022-08-19T06:58:47;11.27;;;8.73;;
9076;SDS011;4574;51.072;17.174;2022-08-19T07:01:19;11.13;;;8.70;;
9076;SDS011;4574;51.072;17.174;2022-08-19T07:03:48;10.80;;;8.13;;
9076;SDS011;4574;51.072;17.174;2022-08-19T07:06:16;9.53;;;8.60;;
9076;SDS011;4574;51.072;17.174;2022-08-19T07:09:07;9.43;;;8.40;;
9076;SDS011;4574;51.072;17.174;2022-08-19T07:11:41;9.60;;;8.07;;
9076;SDS011;4574;51.072;17.174;2022-08-19T07:14:12;12.00;;;8.40;;
9076;SDS011;4574;51.072;17.174;2022-08-19T07:16:45;9.27;;;7.93;;
9076;SDS011;4574;51.072;17.174;2022-08-19T07:19:15;14.03;;;9.07;;
9076;SDS011;4574;51.072;17.174;2022-08-19T07:21:45;10.60;;;8.77;;
9076;SDS011;4574;51.072;17.174;2022-08-19T07:24:15;10.47;;;7.63;;
9076;SDS011;4574;51.072;17.174;2022-08-19T07:26:45;14.03;;;9.27;;
9076;SDS011;4574;51.072;17.174;2022-08-19T07:29:17;20.50;;;10.03;;
9076;SDS011;4574;51.072;17.174;2022-08-19T07:31:51;11.63;;;7.57;;
9076;SDS011;4574;51.072;17.174;2022-08-19T07:34:22;12.97;;;7.73;;
9076;SDS011;4574;51.072;17.174;2022-08-19T07:36:52;10.90;;;7.43;;
9076;SDS011;4574;51.072;17.174;2022-08-19T07:39:22;9.53;;;7.93;;
9076;SDS011;4574;51.072;17.174;2022-08-19T07:41:54;11.03;;;7.80;;
9076;SDS011;4574;51.072;17.174;2022-08-19T07:44:24;9.40;;;7.40;;
9076;SDS011;4574;51.072;17.174;2022-08-19T07:46:54;8.43;;;7.00;;
9076;SDS011;4574;51.072;17.174;2022-08-19T07:49:25;8.23;;;6.90;;
9076;SDS011;4574;51.072;17.174;2022-08-19T07:51:55;9.10;;;6.93;;
9076;SDS011;4574;51.072;17.174;2022-08-19T07:54:26;7.30;;;6.27;;
9076;SDS011;4574;51.072;17.174;2022-08-19T07:56:58;16.67;;;6.30;;
9076;SDS011;4574;51.072;17.174;2022-08-19T07:59:26;9.00;;;6.57;;
9076;SDS011;4574;51.072;17.174;2022-08-19T08:01:56;6.43;;;5.77;;
9076;SDS011;4574;51.072;17.174;2022-08-19T08:04:27;6.23;;;5.63;;
9076;SDS011;4574;51.072;17.174;2022-08-19T08:07:13;9.30;;;5.80;;
9076;SDS011;4574;51.072;17.174;2022-08-19T08:09:59;8.20;;;5.50;;
9076;SDS011;4574;51.072;17.174;2022-08-19T08:12:31;8.47;;;5.60;;
9076;SDS011;4574;51.072;17.174;2022-08-19T08:15:05;14.10;;;6.20;;
9076;SDS011;4574;51.072;17.174;2022-08-19T08:17:38;11.93;;;5.90;;
9076;SDS011;4574;51.072;17.174;2022-08-19T08:20:15;11.63;;;6.13;;
9076;SDS011;4574;51.072;17.174;2022-08-19T08:22:44;16.43;;;6.70;;
9076;SDS011;4574;51.072;17.174;2022-08-19T08:25:31;7.37;;;5.07;;
9076;SDS011;4574;51.072;17.174;2022-08-19T08:28:03;6.97;;;5.40;;
9076;SDS011;4574;51.072;17.174;2022-08-19T08:30:34;7.43;;;6.00;;
9076;SDS011;4574;51.072;17.174;2022-08-19T08:33:03;9.43;;;6.00;;
9076;SDS011;4574;51.072;17.174;2022-08-19T08:35:32;8.33;;;5.57;;
9076;SDS011;4574;51.072;17.174;2022-08-19T08:38:01;10.27;;;7.10;;
9076;SDS011;4574;51.072;17.174;2022-08-19T08:40:32;9.70;;;5.90;;
9076;SDS011;4574;51.072;17.174;2022-08-19T08:43:14;10.93;;;5.80;;
9076;SDS011;4574;51.072;17.174;2022-08-19T08:45:52;6.43;;;5.83;;
9076;SDS011;4574;51.072;17.174;2022-08-19T08:48:26;8.43;;;6.47;;
9076;SDS011;4574;51.072;17.174;2022-08-19T08:51:00;10.13;;;6.13;;
9076;SDS011;4574;51.072;17.174;2022-08-19T08:53:32;11.37;;;6.27;;
9076;SDS011;4574;51.072;17.174;2022-08-19T08:56:07;9.27;;;6.23;;
9076;SDS011;4574;51.072;17.174;2022-08-19T08:58:45;7.33;;;5.77;;
9076;SDS011;4574;51.072;17.174;2022-08-19T09:01:20;8.73;;;6.00;;
9076;SDS011;4574;51.072;17.174;2022-08-19T09:03:49;7.17;;;5.50;;
9076;SDS011;4574;51.072;17.174;2022-08-19T09:06:19;11.40;;;5.23;;
9076;SDS011;4574;51.072;17.174;2022-08-19T09:08:58;6.13;;;5.20;;
9076;SDS011;4574;51.072;17.174;2022-08-19T09:11:40;6.90;;;5.07;;
9076;SDS011;4574;51.072;17.174;2022-08-19T09:14:23;16.13;;;5.50;;
9076;SDS011;4574;51.072;17.174;2022-08-19T09:17:17;7.87;;;5.90;;
9076;SDS011;4574;51.072;17.174;2022-08-19T09:19:51;10.87;;;5.03;;
9076;SDS011;4574;51.072;17.174;2022-08-19T09:22:22;6.03;;;4.73;;
9076;SDS011;4574;51.072;17.174;2022-08-19T09:24:52;8.17;;;6.30;;
9076;SDS011;4574;51.072;17.174;2022-08-19T09:27:21;8.20;;;5.13;;
9076;SDS011;4574;51.072;17.174;2022-08-19T09:30:10;7.33;;;4.73;;
9076;SDS011;4574;51.072;17.174;2022-08-19T09:32:41;9.47;;;4.70;;
9076;SDS011;4574;51.072;17.174;2022-08-19T09:35:10;5.43;;;4.50;;
9076;SDS011;4574;51.072;17.174;2022-08-19T09:37:41;6.57;;;4.63;;
9076;SDS011;4574;51.072;17.174;2022-08-19T09:40:13;5.70;;;4.40;;
9076;SDS011;4574;51.072;17.174;2022-08-19T09:42:42;5.27;;;4.77;;
9076;SDS011;4574;51.072;17.174;2022-08-19T09:45:18;7.27;;;4.37;;
9076;SDS011;4574;51.072;17.174;2022-08-19T09:47:49;5.93;;;4.40;;
9076;SDS011;4574;51.072;17.174;2022-08-19T09:50:21;6.90;;;4.23;;
9076;SDS011;4574;51.072;17.174;2022-08-19T09:52:50;9.30;;;4.60;;
9076;SDS011;4574;51.072;17.174;2022-08-19T09:55:24;6.93;;;4.50;;
9076;SDS011;4574;51.072;17.174;2022-08-19T09:57:57;7.80;;;4.40;;
9076;SDS011;4574;51.072;17.174;2022-08-19T10:00:28;6.30;;;4.63;;
9076;SDS011;4574;51.072;17.174;2022-08-19T10:02:57;5.43;;;4.40;;
9076;SDS011;4574;51.072;17.174;2022-08-19T10:05:26;7.83;;;4.53;;
9076;SDS011;4574;51.072;17.174;2022-08-19T10:08:14;6.20;;;3.90;;
9076;SDS011;4574;51.072;17.174;2022-08-19T10:10:44;11.13;;;4.03;;
9076;SDS011;4574;51.072;17.174;2022-08-19T10:13:14;7.13;;;4.40;;
9076;SDS011;4574;51.072;17.174;2022-08-19T10:15:46;7.63;;;4.30;;
9076;SDS011;4574;51.072;17.174;2022-08-19T10:18:18;7.70;;;3.97;;
9076;SDS011;4574;51.072;17.174;2022-08-19T10:20:48;7.07;;;3.87;;
9076;SDS011;4574;51.072;17.174;2022-08-19T10:23:19;6.00;;;4.03;;
9076;SDS011;4574;51.072;17.174;2022-08-19T10:25:48;7.83;;;4.43;;
9076;SDS011;4574;51.072;17.174;2022-08-19T10:28:17;6.30;;;3.90;;
9076;SDS011;4574;51.072;17.174;2022-08-19T10:30:47;6.17;;;4.20;;
9076;SDS011;4574;51.072;17.174;2022-08-19T10:33:16;9.57;;;4.53;;
9076;SDS011;4574;51.072;17.174;2022-08-19T10:36:05;7.27;;;4.13;;
9076;SDS011;4574;51.072;17.174;2022-08-19T10:38:37;6.17;;;4.37;;
9076;SDS011;4574;51.072;17.174;2022-08-19T10:41:17;6.40;;;3.83;;
9076;SDS011;4574;51.072;17.174;2022-08-19T10:43:50;4.13;;;3.77;;
9076;SDS011;4574;51.072;17.174;2022-08-19T10:46:22;5.67;;;3.80;;
9076;SDS011;4574;51.072;17.174;2022-08-19T10:48:53;5.07;;;3.70;;
9076;SDS011;4574;51.072;17.174;2022-08-19T10:51:22;7.70;;;3.70;;
9076;SDS011;4574;51.072;17.174;2022-08-19T10:54:13;3.47;;;3.17;;
9076;SDS011;4574;51.072;17.174;2022-08-19T10:56:42;4.53;;;3.60;;
9076;SDS011;4574;51.072;17.174;2022-08-19T10:59:21;9.33;;;3.73;;
9076;SDS011;4574;51.072;17.174;2022-08-19T11:01:53;6.63;;;3.77;;
9076;SDS011;4574;51.072;17.174;2022-08-19T11:04:26;8.33;;;3.77;;
9076;SDS011;4574;51.072;17.174;2022-08-19T11:06:55;5.87;;;3.90;;
9076;SDS011;4574;51.072;17.174;2022-08-19T11:09:24;7.40;;;3.50;;
9076;SDS011;4574;51.072;17.174;2022-08-19T11:11:59;4.73;;;3.30;;
9076;SDS011;4574;51.072;17.174;2022-08-19T11:14:30;5.77;;;3.50;;
9076;SDS011;4574;51.072;17.174;2022-08-19T11:17:02;8.23;;;3.60;;
9076;SDS011;4574;51.072;17.174;2022-08-19T11:19:31;7.00;;;3.93;;
9076;SDS011;4574;51.072;17.174;2022-08-19T11:22:00;7.40;;;3.20;;
9076;SDS011;4574;51.072;17.174;2022-08-19T11:24:30;3.87;;;3.50;;
9076;SDS011;4574;51.072;17.174;2022-08-19T11:27:03;3.97;;;3.57;;
9076;SDS011;4574;51.072;17.174;2022-08-19T11:29:34;3.50;;;3.20;;
9076;SDS011;4574;51.072;17.174;2022-08-19T11:32:05;4.17;;;3.50;;
9076;SDS011;4574;51.072;17.174;2022-08-19T11:34:36;6.03;;;3.20;;
9076;SDS011;4574;51.072;17.174;2022-08-19T11:37:05;4.07;;;3.10;;
9076;SDS011;4574;51.072;17.174;2022-08-19T11:39:35;4.23;;;3.00;;
9076;SDS011;4574;51.072;17.174;2022-08-19T11:42:05;4.40;;;2.83;;
9076;SDS011;4574;51.072;17.174;2022-08-19T11:44:54;2.70;;;2.50;;
9076;SDS011;4574;51.072;17.174;2022-08-19T11:47:25;4.00;;;2.73;;
9076;SDS011;4574;51.072;17.174;2022-08-19T11:49:53;2.73;;;2.20;;
9076;SDS011;4574;51.072;17.174;2022-08-19T11:52:22;4.97;;;2.63;;
9076;SDS011;4574;51.072;17.174;2022-08-19T11:54:50;4.43;;;2.03;;
9076;SDS011;4574;51.072;17.174;2022-08-19T11:57:19;2.43;;;2.20;;
9076;SDS011;4574;51.072;17.174;2022-08-19T11:59:48;6.20;;;2.33;;
9076;SDS011;4574;51.072;17.174;2022-08-19T12:02:17;2.43;;;2.23;;
9076;SDS011;4574;51.072;17.174;2022-08-19T12:04:47;2.63;;;1.97;;
9076;SDS011;4574;51.072;17.174;2022-08-19T12:07:15;5.47;;;2.43;;
9076;SDS011;4574;51.072;17.174;2022-08-19T12:09:44;3.63;;;2.03;;
9076;SDS011;4574;51.072;17.174;2022-08-19T12:12:14;8.37;;;2.53;;
9076;SDS011;4574;51.072;17.174;2022-08-19T12:14:43;2.63;;;2.27;;
9076;SDS011;4574;51.072;17.174;2022-08-19T12:17:13;4.33;;;2.10;;
9076;SDS011;4574;51.072;17.174;2022-08-19T12:19:41;3.17;;;2.20;;
9076;SDS011;4574;51.072;17.174;2022-08-19T12:22:12;3.20;;;2.10;;
9076;SDS011;4574;51.072;17.174;2022-08-19T12:24:40;6.53;;;2.30;;
9076;SDS011;4574;51.072;17.174;2022-08-19T12:27:09;4.40;;;2.40;;
9076;SDS011;4574;51.072;17.174;2022-08-19T12:29:38;6.07;;;2.47;;
9076;SDS011;4574;51.072;17.174;2022-08-19T12:32:08;2.87;;;2.20;;
9076;SDS011;4574;51.072;17.174;2022-08-19T12:34:37;4.87;;;2.30;;
9076;SDS011;4574;51.072;17.174;2022-08-19T12:37:06;2.70;;;2.20;;
9076;SDS011;4574;51.072;17.174;2022-08-19T12:39:36;4.70;;;2.33;;
9076;SDS011;4574;51.072;17.174;2022-08-19T12:42:06;3.53;;;2.10;;
9076;SDS011;4574;51.072;17.174;2022-08-19T12:44:36;4.63;;;2.63;;
9076;SDS011;4574;51.072;17.174;2022-08-19T12:47:07;6.00;;;2.37;;
9076;SDS011;4574;51.072;17.174;2022-08-19T12:49:36;6.43;;;2.53;;
9076;SDS011;4574;51.072;17.174;2022-08-19T12:52:20;8.17;;;2.40;;
9076;SDS011;4574;51.072;17.174;2022-08-19T12:54:51;5.77;;;2.30;;
9076;SDS011;4574;51.072;17.174;2022-08-19T12:57:21;4.03;;;2.10;;
9076;SDS011;4574;51.072;17.174;2022-08-19T12:59:57;4.80;;;3.00;;
9076;SDS011;4574;51.072;17.174;2022-08-19T13:02:26;3.40;;;2.30;;
9076;SDS011;4574;51.072;17.174;2022-08-19T13:04:55;6.00;;;2.20;;
9076;SDS011;4574;51.072;17.174;2022-08-19T13:07:24;4.40;;;2.30;;
9076;SDS011;4574;51.072;17.174;2022-08-19T13:09:54;3.20;;;2.33;;
9076;SDS011;4574;51.072;17.174;2022-08-19T13:12:22;5.03;;;2.20;;
9076;SDS011;4574;51.072;17.174;2022-08-19T13:14:53;4.53;;;1.87;;
9076;SDS011;4574;51.072;17.174;2022-08-19T13:17:22;5.23;;;2.23;;
9076;SDS011;4574;51.072;17.174;2022-08-19T13:19:51;2.07;;;1.70;;
9076;SDS011;4574;51.072;17.174;2022-08-19T13:22:19;2.90;;;1.90;;
9076;SDS011;4574;51.072;17.174;2022-08-19T13:24:48;3.87;;;2.17;;
9076;SDS011;4574;51.072;17.174;2022-08-19T13:27:18;4.63;;;1.87;;
9076;SDS011;4574;51.072;17.174;2022-08-19T13:29:47;8.70;;;2.43;;
9076;SDS011;4574;51.072;17.174;2022-08-19T13:32:32;5.87;;;2.53;;
9076;SDS011;4574;51.072;17.174;2022-08-19T13:35:19;7.07;;;1.97;;
9076;SDS011;4574;51.072;17.174;2022-08-19T13:37:47;6.87;;;2.37;;
9076;SDS011;4574;51.072;17.174;2022-08-19T13:40:16;8.53;;;2.40;;
9076;SDS011;4574;51.072;17.174;2022-08-19T13:42:50;5.23;;;2.27;;
9076;SDS011;4574;51.072;17.174;2022-08-19T13:45:21;7.43;;;2.33;;
9076;SDS011;4574;51.072;17.174;2022-08-19T13:47:53;4.70;;;2.53;;
9076;SDS011;4574;51.072;17.174;2022-08-19T13:50:25;11.17;;;2.67;;
9076;SDS011;4574;51.072;17.174;2022-08-19T13:52:55;5.37;;;2.40;;
9076;SDS011;4574;51.072;17.174;2022-08-19T13:55:24;5.40;;;2.50;;
9076;SDS011;4574;51.072;17.174;2022-08-19T13:57:55;8.00;;;3.30;;
9076;SDS011;4574;51.072;17.174;2022-08-19T14:00:25;6.53;;;2.83;;
9076;SDS011;4574;51.072;17.174;2022-08-19T14:02:56;4.60;;;2.27;;
9076;SDS011;4574;51.072;17.174;2022-08-19T14:05:25;6.83;;;2.43;;
9076;SDS011;4574;51.072;17.174;2022-08-19T14:07:55;5.93;;;2.90;;
9076;SDS011;4574;51.072;17.174;2022-08-19T14:10:25;6.83;;;3.30;;
9076;SDS011;4574;51.072;17.174;2022-08-19T14:12:56;6.13;;;2.30;;
9076;SDS011;4574;51.072;17.174;2022-08-19T14:15:26;4.60;;;2.67;;
9076;SDS011;4574;51.072;17.174;2022-08-19T14:17:55;8.73;;;2.73;;
9076;SDS011;4574;51.072;17.174;2022-08-19T14:20:24;6.00;;;2.80;;
9076;SDS011;4574;51.072;17.174;2022-08-19T14:22:53;7.30;;;2.43;;
9076;SDS011;4574;51.072;17.174;2022-08-19T14:25:23;10.80;;;2.73;;
9076;SDS011;4574;51.072;17.174;2022-08-19T14:27:53;9.27;;;3.10;;
9076;SDS011;4574;51.072;17.174;2022-08-19T14:30:24;14.87;;;2.80;;
9076;SDS011;4574;51.072;17.174;2022-08-19T14:32:54;12.80;;;2.73;;
9076;SDS011;4574;51.072;17.174;2022-08-19T14:35:24;7.30;;;2.87;;
9076;SDS011;4574;51.072;17.174;2022-08-19T14:37:54;11.87;;;2.77;;
9076;SDS011;4574;51.072;17.174;2022-08-19T14:40:26;3.70;;;2.20;;
9076;SDS011;4574;51.072;17.174;2022-08-19T14:42:57;5.80;;;2.57;;
9076;SDS011;4574;51.072;17.174;2022-08-19T14:45:32;10.43;;;3.00;;
9076;SDS011;4574;51.072;17.174;2022-08-19T14:48:03;4.13;;;2.33;;
9076;SDS011;4574;51.072;17.174;2022-08-19T14:50:31;6.27;;;3.20;;
9076;SDS011;4574;51.072;17.174;2022-08-19T14:53:01;8.33;;;2.80;;
9076;SDS011;4574;51.072;17.174;2022-08-19T14:55:34;7.00;;;2.40;;
9076;SDS011;4574;51.072;17.174;2022-08-19T14:58:03;9.00;;;2.67;;
9076;SDS011;4574;51.072;17.174;2022-08-19T15:00:35;10.53;;;2.57;;
9076;SDS011;4574;51.072;17.174;2022-08-19T15:03:04;6.70;;;2.87;;
9076;SDS011;4574;51.072;17.174;2022-08-19T15:05:32;8.40;;;2.93;;
9076;SDS011;4574;51.072;17.174;2022-08-19T15:08:02;6.57;;;2.60;;
9076;SDS011;4574;51.072;17.174;2022-08-19T15:10:31;7.70;;;3.13;;
9076;SDS011;4574;51.072;17.174;2022-08-19T15:13:00;6.33;;;2.80;;
9076;SDS011;4574;51.072;17.174;2022-08-19T15:15:28;9.83;;;2.60;;
9076;SDS011;4574;51.072;17.174;2022-08-19T15:17:58;5.57;;;2.47;;
9076;SDS011;4574;51.072;17.174;2022-08-19T15:20:29;5.50;;;2.47;;
9076;SDS011;4574;51.072;17.174;2022-08-19T15:22:57;4.30;;;2.43;;
9076;SDS011;4574;51.072;17.174;2022-08-19T15:25:27;7.80;;;2.73;;